createdAt,value
2023-03-27T00:01:33.983Z,6.03
2023-03-27T00:04:02.208Z,7.67
2023-03-27T00:06:30.206Z,7.20
2023-03-27T00:08:58.203Z,7.90
2023-03-27T00:11:26.578Z,6.73
2023-03-27T00:13:54.928Z,7.20
2023-03-27T00:16:26.764Z,6.20
2023-03-27T00:18:55.776Z,7.43
2023-03-27T00:21:24.523Z,5.80
2023-03-27T00:23:52.678Z,7.00
2023-03-27T00:26:22.068Z,7.90
2023-03-27T00:28:50.093Z,7.20
2023-03-27T00:31:18.298Z,6.53
2023-03-27T00:33:47.617Z,6.50
2023-03-27T00:36:15.744Z,7.43
2023-03-27T00:38:45.792Z,6.83
2023-03-27T00:41:13.892Z,8.37
2023-03-27T00:43:44.140Z,6.23
2023-03-27T00:46:31.482Z,7.10
2023-03-27T00:49:03.999Z,7.77
2023-03-27T00:51:32.391Z,7.47
2023-03-27T00:54:01.201Z,8.80
2023-03-27T00:56:30.597Z,7.60
2023-03-27T00:59:02.348Z,8.10
2023-03-27T01:01:31.925Z,7.20
2023-03-27T01:04:03.872Z,7.70
2023-03-27T01:06:33.108Z,6.87
2023-03-27T01:09:01.011Z,8.07
2023-03-27T01:11:39.474Z,7.63
2023-03-27T01:14:16.638Z,8.00
2023-03-27T01:16:56.793Z,8.27
2023-03-27T01:19:57.412Z,9.00
2023-03-27T01:23:04.015Z,9.63
2023-03-27T01:26:04.350Z,9.33
2023-03-27T01:28:41.098Z,7.17
2023-03-27T01:31:26.419Z,8.33
2023-03-27T01:34:11.200Z,9.43
2023-03-27T01:37:02.544Z,9.03
2023-03-27T01:39:40.165Z,8.87
2023-03-27T01:42:18.440Z,8.03
2023-03-27T01:44:52.295Z,7.50
2023-03-27T01:47:28.257Z,8.27
2023-03-27T01:50:04.959Z,8.13
2023-03-27T01:52:37.769Z,8.30
2023-03-27T01:55:11.714Z,7.83
2023-03-27T01:57:50.201Z,8.80
2023-03-27T02:00:23.196Z,8.03
2023-03-27T02:02:56.679Z,8.53
2023-03-27T02:05:30.813Z,8.43
2023-03-27T02:08:05.782Z,8.10
2023-03-27T02:10:41.664Z,7.87
2023-03-27T02:13:21.278Z,9.80
2023-03-27T02:15:51.626Z,9.27
2023-03-27T02:18:25.637Z,7.87
2023-03-27T02:20:53.960Z,9.37
2023-03-27T02:23:23.085Z,7.90
2023-03-27T02:25:54.243Z,7.40
2023-03-27T02:28:35.291Z,9.60
2023-03-27T02:31:32.245Z,8.00
2023-03-27T02:34:24.410Z,7.73
2023-03-27T02:37:02.116Z,10.27
2023-03-27T02:39:57.171Z,8.80
2023-03-27T02:42:35.984Z,10.53
2023-03-27T02:45:12.174Z,8.10
2023-03-27T02:47:43.991Z,7.77
2023-03-27T02:50:19.044Z,8.47
2023-03-27T02:52:52.983Z,8.30
2023-03-27T02:55:26.595Z,7.90
2023-03-27T02:58:02.298Z,9.77
2023-03-27T03:00:41.999Z,8.70
2023-03-27T03:03:35.913Z,7.90
2023-03-27T03:06:11.955Z,12.37
2023-03-27T03:08:39.990Z,15.20
2023-03-27T03:11:14.496Z,10.03
2023-03-27T03:13:43.913Z,8.43
2023-03-27T03:16:12.156Z,9.20
2023-03-27T03:18:41.160Z,11.67
2023-03-27T03:21:09.603Z,12.67
2023-03-27T03:23:39.127Z,12.60
2023-03-27T03:26:08.103Z,10.30
2023-03-27T03:29:00.536Z,12.33
2023-03-27T03:31:42.799Z,10.60
2023-03-27T03:34:11.743Z,12.40
2023-03-27T03:36:42.007Z,10.07
2023-03-27T03:39:11.344Z,12.63
2023-03-27T03:41:39.262Z,16.43
2023-03-27T03:44:09.072Z,11.80
2023-03-27T03:46:37.276Z,11.60
2023-03-27T03:49:05.466Z,9.30
2023-03-27T03:51:33.712Z,9.93
2023-03-27T03:54:01.959Z,9.70
2023-03-27T03:56:30.909Z,9.27
2023-03-27T03:58:59.130Z,8.77
2023-03-27T04:01:28.810Z,9.00
2023-03-27T04:04:02.234Z,8.70
2023-03-27T04:06:49.051Z,9.00
2023-03-27T04:09:17.219Z,8.67
2023-03-27T04:11:58.302Z,8.90
2023-03-27T04:14:45.291Z,9.77
2023-03-27T04:17:34.875Z,9.10
2023-03-27T04:20:05.935Z,8.80
2023-03-27T04:22:37.871Z,9.53
2023-03-27T04:25:09.528Z,8.80
2023-03-27T04:27:37.437Z,8.73
2023-03-27T04:30:15.926Z,10.30
2023-03-27T04:33:08.000Z,8.77
2023-03-27T04:36:05.635Z,9.63
2023-03-27T04:38:54.266Z,10.07
2023-03-27T04:41:22.420Z,11.60
2023-03-27T04:43:50.478Z,9.73
2023-03-27T04:46:18.610Z,10.07
2023-03-27T04:48:54.369Z,11.57
2023-03-27T04:51:36.607Z,10.90
2023-03-27T04:54:05.234Z,9.60
2023-03-27T04:56:35.183Z,9.33
2023-03-27T04:59:04.771Z,12.43
2023-03-27T05:04:19.545Z,9.50
2023-03-27T05:07:07.737Z,11.97
2023-03-27T05:09:35.598Z,9.93
2023-03-27T05:12:03.633Z,10.77
2023-03-27T05:14:38.368Z,14.67
2023-03-27T05:17:11.628Z,9.83
2023-03-27T05:19:43.386Z,10.37
2023-03-27T05:22:11.530Z,8.93
2023-03-27T05:24:49.048Z,7.33
2023-03-27T05:27:16.977Z,8.70
2023-03-27T05:29:49.128Z,6.33
2023-03-27T05:32:18.337Z,8.63
2023-03-27T05:34:54.493Z,8.03
2023-03-27T05:37:25.451Z,9.13
2023-03-27T05:40:15.184Z,8.00
2023-03-27T05:42:45.221Z,6.80
2023-03-27T05:45:14.576Z,6.77
2023-03-27T05:47:47.339Z,7.83
2023-03-27T05:50:18.119Z,6.07
2023-03-27T05:52:46.532Z,6.43
2023-03-27T05:55:15.224Z,8.40
2023-03-27T05:57:45.176Z,13.20
2023-03-27T06:00:16.082Z,9.13
2023-03-27T06:02:45.009Z,6.90
2023-03-27T06:05:17.256Z,9.03
2023-03-27T06:07:50.681Z,5.73
2023-03-27T06:10:20.294Z,7.40
2023-03-27T06:13:14.698Z,6.23
2023-03-27T06:15:56.313Z,6.77
2023-03-27T06:18:53.950Z,8.90
2023-03-27T06:21:23.936Z,9.17
2023-03-27T06:23:58.918Z,9.53
2023-03-27T06:26:28.546Z,6.37
2023-03-27T06:28:58.477Z,6.57
2023-03-27T06:31:29.512Z,7.23
2023-03-27T06:34:17.803Z,5.83
2023-03-27T06:36:55.696Z,5.30
2023-03-27T06:39:23.640Z,7.40
2023-03-27T06:41:53.730Z,9.83
2023-03-27T06:44:33.325Z,5.57
2023-03-27T06:47:01.431Z,5.77
2023-03-27T06:49:49.606Z,5.73
2023-03-27T06:52:24.748Z,9.30
2023-03-27T06:54:56.758Z,8.17
2023-03-27T06:57:24.760Z,6.00
2023-03-27T07:00:02.412Z,6.40
2023-03-27T07:02:51.434Z,5.40
2023-03-27T07:05:49.073Z,6.83
2023-03-27T07:08:23.426Z,5.80
2023-03-27T07:13:26.187Z,6.70
2023-03-27T07:15:55.115Z,7.10
2023-03-27T07:18:23.737Z,5.23
2023-03-27T07:20:54.901Z,6.27
2023-03-27T07:23:26.710Z,7.43
2023-03-27T07:26:06.970Z,5.53
2023-03-27T07:29:00.702Z,6.37
2023-03-27T07:31:37.293Z,6.03
2023-03-27T07:34:10.768Z,5.60
2023-03-27T07:37:14.540Z,7.40
2023-03-27T07:40:01.644Z,7.27
2023-03-27T07:42:30.260Z,6.57
2023-03-27T07:45:03.496Z,6.97
2023-03-27T07:47:32.344Z,7.30
2023-03-27T07:50:00.671Z,7.17
2023-03-27T07:52:29.367Z,11.20
2023-03-27T07:55:06.930Z,8.80
2023-03-27T07:57:59.872Z,7.70
2023-03-27T08:00:32.533Z,13.03
2023-03-27T08:03:11.456Z,9.23
2023-03-27T08:05:44.225Z,9.50
2023-03-27T08:08:14.815Z,11.43
2023-03-27T08:11:05.649Z,15.17
2023-03-27T08:13:38.157Z,10.43
2023-03-27T08:16:10.411Z,13.27
2023-03-27T08:18:38.858Z,12.50
2023-03-27T08:21:10.426Z,13.07
2023-03-27T08:23:41.032Z,12.77
2023-03-27T08:26:28.766Z,14.73
2023-03-27T08:28:59.350Z,14.00
2023-03-27T08:31:31.480Z,12.73
2023-03-27T08:34:01.710Z,16.00
2023-03-27T08:36:39.340Z,14.83
2023-03-27T08:39:08.231Z,12.37
2023-03-27T08:41:58.390Z,13.97
2023-03-27T08:44:38.713Z,14.00
2023-03-27T08:47:18.396Z,14.37
2023-03-27T08:49:58.211Z,10.77
2023-03-27T08:52:47.817Z,14.90
2023-03-27T08:55:33.834Z,12.20
2023-03-27T08:58:21.489Z,13.90
2023-03-27T09:01:02.070Z,10.60
2023-03-27T09:03:35.770Z,12.47
2023-03-27T09:06:10.560Z,14.53
2023-03-27T09:08:52.436Z,14.97
2023-03-27T09:11:33.802Z,11.83
2023-03-27T09:14:13.833Z,13.70
2023-03-27T09:16:49.498Z,14.20
2023-03-27T09:19:38.433Z,15.43
2023-03-27T09:22:12.905Z,13.67
2023-03-27T09:24:56.416Z,19.00
2023-03-27T09:27:50.681Z,12.57
2023-03-27T09:30:42.980Z,15.87
2023-03-27T09:33:16.444Z,14.07
2023-03-27T09:35:46.943Z,16.57
2023-03-27T09:38:26.161Z,11.30
2023-03-27T09:40:58.412Z,13.33
2023-03-27T09:43:34.205Z,12.57
2023-03-27T09:46:04.956Z,11.07
2023-03-27T09:48:38.698Z,11.50
2023-03-27T09:51:37.489Z,10.70
2023-03-27T09:54:08.303Z,9.83
2023-03-27T09:56:39.471Z,10.27
2023-03-27T09:59:20.129Z,8.30
2023-03-27T10:01:51.334Z,9.87
2023-03-27T10:04:21.917Z,7.17
2023-03-27T10:07:01.617Z,7.70
2023-03-27T10:10:07.154Z,12.00
2023-03-27T10:12:43.018Z,7.83
2023-03-27T10:15:33.005Z,5.43
2023-03-27T10:18:07.310Z,4.77
2023-03-27T10:20:35.944Z,4.00
2023-03-27T10:23:09.286Z,4.80
2023-03-27T10:25:39.970Z,2.57
2023-03-27T10:28:23.922Z,2.93
2023-03-27T10:31:28.164Z,2.70
2023-03-27T10:34:05.901Z,2.47
2023-03-27T10:36:55.388Z,2.90
2023-03-27T10:39:30.100Z,2.40
2023-03-27T10:42:27.693Z,2.67
2023-03-27T10:44:57.633Z,2.40
2023-03-27T10:47:32.577Z,2.43
2023-03-27T10:50:12.190Z,2.47
2023-03-27T10:52:54.530Z,2.37
2023-03-27T10:56:01.054Z,1.90
2023-03-27T10:58:35.188Z,1.80
2023-03-27T11:01:11.350Z,2.17
2023-03-27T11:03:52.504Z,2.07
2023-03-27T11:06:28.550Z,2.20
2023-03-27T11:09:05.897Z,1.90
2023-03-27T11:11:42.015Z,2.13
2023-03-27T11:14:18.595Z,2.30
2023-03-27T11:16:51.573Z,2.57
2023-03-27T11:19:34.368Z,2.10
2023-03-27T11:22:29.870Z,3.30
2023-03-27T11:25:05.866Z,2.13
2023-03-27T11:27:41.136Z,2.53
2023-03-27T11:30:26.684Z,2.40
2023-03-27T11:33:09.700Z,2.53
2023-03-27T11:35:42.642Z,2.53
2023-03-27T11:38:36.412Z,2.73
2023-03-27T11:41:08.075Z,2.83
2023-03-27T11:43:39.864Z,4.10
2023-03-27T11:46:36.932Z,3.60
2023-03-27T11:49:20.607Z,3.07
2023-03-27T11:52:02.965Z,3.20
2023-03-27T11:54:48.362Z,3.60
2023-03-27T11:57:24.698Z,3.50
2023-03-27T12:00:17.721Z,4.30
2023-03-27T12:03:14.582Z,3.30
2023-03-27T12:06:03.040Z,3.43
2023-03-27T12:08:51.122Z,3.53
2023-03-27T12:11:23.650Z,3.10
2023-03-27T12:14:19.321Z,3.60
2023-03-27T12:17:05.042Z,3.60
2023-03-27T12:20:17.509Z,3.93
2023-03-27T12:22:59.936Z,4.10
2023-03-27T12:26:17.392Z,3.80
2023-03-27T12:29:23.374Z,3.50
2023-03-27T12:32:12.063Z,3.50
2023-03-27T12:34:56.531Z,3.10
2023-03-27T12:37:34.703Z,3.03
2023-03-27T12:40:14.123Z,3.20
2023-03-27T12:42:51.667Z,3.23
2023-03-27T12:45:24.649Z,3.00
2023-03-27T12:48:18.694Z,3.40
2023-03-27T12:50:56.856Z,3.17
2023-03-27T12:53:55.078Z,2.63
2023-03-27T12:56:35.429Z,4.00
2023-03-27T12:59:15.886Z,3.00
2023-03-27T13:02:06.115Z,3.73
2023-03-27T13:05:27.302Z,3.67
2023-03-27T13:08:28.359Z,4.43
2023-03-27T13:11:34.526Z,3.30
2023-03-27T13:14:23.960Z,6.13
2023-03-27T13:17:16.112Z,2.80
2023-03-27T13:19:56.318Z,3.80
2023-03-27T13:22:45.822Z,3.70
2023-03-27T13:25:31.632Z,5.13
2023-03-27T13:28:35.723Z,3.40
2023-03-27T13:31:14.266Z,4.43
2023-03-27T13:33:46.536Z,3.03
2023-03-27T13:36:27.678Z,4.43
2023-03-27T13:39:21.156Z,3.60
2023-03-27T13:41:56.535Z,3.97
2023-03-27T13:44:41.840Z,3.47
2023-03-27T13:47:35.539Z,3.07
2023-03-27T13:50:24.628Z,3.17
2023-03-27T13:53:17.548Z,3.27
2023-03-27T13:56:20.933Z,3.00
2023-03-27T13:59:30.690Z,2.90
2023-03-27T14:02:13.970Z,2.93
2023-03-27T14:05:10.997Z,3.53
2023-03-27T14:08:15.223Z,3.63
2023-03-27T14:11:27.467Z,3.53
2023-03-27T14:14:17.805Z,3.37
2023-03-27T14:17:17.513Z,3.50
2023-03-27T14:20:19.096Z,3.20
2023-03-27T14:22:57.905Z,6.00
2023-03-27T14:25:35.162Z,3.70
2023-03-27T14:28:32.593Z,4.60
2023-03-27T14:31:07.200Z,4.73
2023-03-27T14:33:51.883Z,3.60
2023-03-27T14:36:24.151Z,3.67
2023-03-27T14:38:53.986Z,3.73
2023-03-27T14:41:46.618Z,4.03
2023-03-27T14:44:15.820Z,8.80
2023-03-27T14:46:47.989Z,4.63
2023-03-27T14:49:19.343Z,4.47
2023-03-27T14:51:55.525Z,4.90
2023-03-27T14:54:54.657Z,3.70
2023-03-27T14:57:28.849Z,3.90
2023-03-27T15:00:00.427Z,4.40
2023-03-27T15:02:32.521Z,4.00
2023-03-27T15:05:05.920Z,3.90
2023-03-27T15:07:35.733Z,3.90
2023-03-27T15:10:26.259Z,3.77
2023-03-27T15:13:12.892Z,3.77
2023-03-27T15:15:50.138Z,3.10
2023-03-27T15:18:28.217Z,6.27
2023-03-27T15:21:00.616Z,3.77
2023-03-27T15:23:36.707Z,3.83
2023-03-27T15:26:13.160Z,3.40
2023-03-27T15:28:49.893Z,3.13
2023-03-27T15:31:18.778Z,3.23
2023-03-27T15:34:02.198Z,5.33
2023-03-27T15:36:34.209Z,4.70
2023-03-27T15:39:04.167Z,4.10
2023-03-27T15:41:44.001Z,4.00
2023-03-27T15:44:18.073Z,4.00
2023-03-27T15:46:50.674Z,3.40
2023-03-27T15:49:25.878Z,3.77
2023-03-27T15:51:53.917Z,3.87
2023-03-27T15:54:33.599Z,4.30
2023-03-27T15:57:09.768Z,3.60
2023-03-27T15:59:51.927Z,3.80
2023-03-27T16:02:25.293Z,4.00
2023-03-27T16:04:55.855Z,4.17
2023-03-27T16:07:27.390Z,3.30
2023-03-27T16:09:58.347Z,4.03
2023-03-27T16:12:32.983Z,4.10
2023-03-27T16:15:04.355Z,3.83
2023-03-27T16:17:40.454Z,4.40
2023-03-27T16:20:34.114Z,4.40
2023-03-27T16:23:02.330Z,3.93
2023-03-27T16:25:30.199Z,3.87
2023-03-27T16:27:59.833Z,5.23
2023-03-27T16:30:30.682Z,4.00
2023-03-27T16:32:59.369Z,4.80
2023-03-27T16:35:27.838Z,3.67
2023-03-27T16:37:56.498Z,5.50
2023-03-27T16:40:24.887Z,3.83
2023-03-27T16:42:52.707Z,3.53
2023-03-27T16:45:22.025Z,4.33
2023-03-27T16:47:53.106Z,4.20
2023-03-27T16:50:26.748Z,4.00
2023-03-27T16:52:54.785Z,3.37
2023-03-27T16:55:23.043Z,3.90
2023-03-27T16:57:52.458Z,7.13
2023-03-27T17:00:22.944Z,3.53
2023-03-27T17:02:51.028Z,4.50
2023-03-27T17:05:19.046Z,4.37
2023-03-27T17:07:48.552Z,5.83
2023-03-27T17:10:17.108Z,3.53
2023-03-27T17:12:45.431Z,4.33
2023-03-27T17:15:15.116Z,3.70
2023-03-27T17:17:45.024Z,3.97
2023-03-27T17:20:13.388Z,3.60
2023-03-27T17:22:41.282Z,6.20
2023-03-27T17:25:10.234Z,3.93
2023-03-27T17:27:38.561Z,4.50
2023-03-27T17:30:07.942Z,4.50
2023-03-27T17:32:35.880Z,3.70
2023-03-27T17:35:05.601Z,4.50
2023-03-27T17:37:35.477Z,3.40
2023-03-27T17:40:09.451Z,5.57
2023-03-27T17:42:37.743Z,7.23
2023-03-27T17:45:06.725Z,3.80
2023-03-27T17:47:34.661Z,3.90
2023-03-27T17:50:02.646Z,4.40
2023-03-27T17:52:35.058Z,3.97
2023-03-27T17:55:02.916Z,4.60
2023-03-27T17:57:30.871Z,5.10
2023-03-27T17:59:59.317Z,4.30
2023-03-27T18:02:27.333Z,4.77
2023-03-27T18:04:55.436Z,3.83
2023-03-27T18:07:24.450Z,5.33
2023-03-27T18:09:53.759Z,3.70
2023-03-27T18:12:21.655Z,4.00
2023-03-27T18:14:49.566Z,3.73
2023-03-27T18:17:20.970Z,3.80
2023-03-27T18:19:49.032Z,5.70
2023-03-27T18:22:17.442Z,3.60
2023-03-27T18:24:45.505Z,4.83
2023-03-27T18:27:17.102Z,3.30
2023-03-27T18:29:45.039Z,4.73
2023-03-27T18:32:13.031Z,3.23
2023-03-27T18:34:41.380Z,3.50
2023-03-27T18:37:09.250Z,3.10
2023-03-27T18:39:37.724Z,3.10
2023-03-27T18:42:06.073Z,3.00
2023-03-27T18:44:38.008Z,6.20
2023-03-27T18:47:06.067Z,3.50
2023-03-27T18:49:33.954Z,3.10
2023-03-27T18:52:02.096Z,2.80
2023-03-27T18:54:30.487Z,4.90
2023-03-27T18:56:58.438Z,3.17
2023-03-27T18:59:27.064Z,3.30
2023-03-27T19:01:56.368Z,3.50
2023-03-27T19:04:24.346Z,3.13
2023-03-27T19:06:52.263Z,2.90
2023-03-27T19:09:23.482Z,5.03
2023-03-27T19:12:00.535Z,4.13
2023-03-27T19:14:46.747Z,3.07
2023-03-27T19:17:45.218Z,3.50
2023-03-27T19:20:33.430Z,3.03
2023-03-27T19:23:18.909Z,3.00
2023-03-27T19:25:54.844Z,3.23
2023-03-27T19:28:22.888Z,3.70
2023-03-27T19:30:52.896Z,4.60
2023-03-27T19:33:22.421Z,2.80
2023-03-27T19:35:53.620Z,3.40
2023-03-27T19:38:21.577Z,3.20
2023-03-27T19:40:49.453Z,3.43
2023-03-27T19:43:18.872Z,4.20
2023-03-27T19:46:04.287Z,3.00
2023-03-27T19:48:37.993Z,3.47
2023-03-27T19:51:12.367Z,4.00
2023-03-27T19:53:47.926Z,5.13
2023-03-27T19:56:16.110Z,3.17
2023-03-27T19:58:44.022Z,3.83
2023-03-27T20:01:12.184Z,3.43
2023-03-27T20:03:41.727Z,4.77
2023-03-27T20:06:18.793Z,3.37
2023-03-27T20:08:46.987Z,3.20
2023-03-27T20:11:16.745Z,3.50
2023-03-27T20:13:56.213Z,3.80
2023-03-27T20:16:26.566Z,4.33
2023-03-27T20:19:04.630Z,4.97
2023-03-27T20:21:35.017Z,4.60
2023-03-27T20:24:06.698Z,3.30
2023-03-27T20:26:40.093Z,3.20
2023-03-27T20:29:16.219Z,3.63
2023-03-27T20:31:45.516Z,4.17
2023-03-27T20:34:19.041Z,3.33
2023-03-27T20:36:47.392Z,4.33
2023-03-27T20:39:44.504Z,5.07
2023-03-27T20:42:15.013Z,3.83
2023-03-27T20:44:44.395Z,3.00
2023-03-27T20:47:12.706Z,3.00
2023-03-27T20:49:46.432Z,3.67
2023-03-27T20:52:16.209Z,3.07
2023-03-27T20:54:44.090Z,3.20
2023-03-27T20:57:13.315Z,3.93
2023-03-27T20:59:41.255Z,3.97
2023-03-27T21:02:16.251Z,2.80
2023-03-27T21:04:44.259Z,5.10
2023-03-27T21:07:13.424Z,3.27
2023-03-27T21:09:41.752Z,4.13
2023-03-27T21:12:09.903Z,7.37
2023-03-27T21:14:37.762Z,4.53
2023-03-27T21:17:05.664Z,5.93
2023-03-27T21:19:33.572Z,3.47
2023-03-27T21:22:01.373Z,3.20
2023-03-27T21:24:30.712Z,3.33
2023-03-27T21:27:00.062Z,5.30
2023-03-27T21:29:28.035Z,3.47
2023-03-27T21:31:55.890Z,5.30
2023-03-27T21:34:24.248Z,4.33
2023-03-27T21:36:52.356Z,2.83
2023-03-27T21:39:20.645Z,3.00
2023-03-27T21:41:49.908Z,3.20
2023-03-27T21:44:17.753Z,4.83
2023-03-27T21:46:45.589Z,3.43
2023-03-27T21:49:13.417Z,3.07
2023-03-27T21:51:41.230Z,4.43
2023-03-27T21:54:09.184Z,3.87
2023-03-27T21:56:37.144Z,3.40
2023-03-27T21:59:06.547Z,2.77
2023-03-27T22:01:34.622Z,3.10
2023-03-27T22:04:02.706Z,5.27
2023-03-27T22:06:30.967Z,4.57
2023-03-27T22:08:58.996Z,3.07
2023-03-27T22:11:26.825Z,2.83
2023-03-27T22:13:54.875Z,4.97
2023-03-27T22:16:24.421Z,4.30
2023-03-27T22:18:52.579Z,4.03
2023-03-27T22:21:23.000Z,3.43
2023-03-27T22:23:51.934Z,3.90
2023-03-27T22:26:20.325Z,3.80
2023-03-27T22:28:48.256Z,2.80
2023-03-27T22:31:16.638Z,3.93
2023-03-27T22:33:46.258Z,3.20
2023-03-27T22:36:14.887Z,3.17
2023-03-27T22:38:43.593Z,4.30
2023-03-27T22:41:12.512Z,5.17
2023-03-27T22:43:41.066Z,3.27
2023-03-27T22:46:10.725Z,3.70
2023-03-27T22:48:38.593Z,2.97
2023-03-27T22:51:09.033Z,3.43
2023-03-27T22:53:37.847Z,3.83
2023-03-27T22:56:07.466Z,3.07
2023-03-27T22:58:35.601Z,3.47
2023-03-27T23:01:04.827Z,3.40
2023-03-27T23:03:33.544Z,4.03
2023-03-27T23:06:01.807Z,6.70
2023-03-27T23:08:31.784Z,3.47
2023-03-27T23:11:01.716Z,3.20
2023-03-27T23:13:32.345Z,3.23
2023-03-27T23:16:01.013Z,3.20
2023-03-27T23:18:29.069Z,3.50
2023-03-27T23:20:57.775Z,3.60
2023-03-27T23:23:26.792Z,3.00
2023-03-27T23:25:57.679Z,3.57
2023-03-27T23:28:26.361Z,3.53
2023-03-27T23:30:55.602Z,4.23
2023-03-27T23:33:25.106Z,3.97
2023-03-27T23:35:54.306Z,4.27
2023-03-27T23:38:22.477Z,7.07
2023-03-27T23:40:57.651Z,3.43
2023-03-27T23:43:26.690Z,4.23
2023-03-27T23:45:55.935Z,3.63
2023-03-27T23:48:24.389Z,3.87
2023-03-27T23:50:53.223Z,3.40
2023-03-27T23:53:22.037Z,3.87
2023-03-27T23:55:50.106Z,3.83
2023-03-27T23:58:19.628Z,5.40
